Time;durP1;ratioP1;P1;durP2;ratioP2;P2;SDS_P1;SDS_P2;PMS_P1;PMS_P2;Temp;Humidity;BMP_temperature;BMP_pressure;BME280_temperature;BME280_humidity;BME280_pressure;Samples;Min_cycle;Max_cycle;Signal;HPM_P1;HPM_P2
2021/05/20 00:02:03;;;;;;;9.35;2.35;;;;;;;;;;6805402;29;20062;-75
2021/05/20 00:05:23;;;;;;;6.10;2.20;;;;;;;;;;6808897;29;20036;-75
2021/05/20 00:08:44;;;;;;;9.80;2.67;;;;;;;;;;6809269;29;20164;-76
2021/05/20 00:12:04;;;;;;;7.57;2.45;;;;;;;;;;6805596;29;20036;-75
2021/05/20 00:15:25;;;;;;;5.13;2.10;;;;;;;;;;6799818;29;20413;-76
2021/05/20 00:18:45;;;;;;;12.25;2.75;;;;;;;;;;6802408;29;20031;-76
2021/05/20 00:22:06;;;;;;;10.20;2.15;;;;;;;;;;6799699;29;20512;-76
2021/05/20 00:25:26;;;;;;;8.18;2.63;;;;;;;;;;6808932;29;20031;-76
2021/05/20 00:28:46;;;;;;;7.72;2.78;;;;;;;;;;6807249;29;20039;-76
2021/05/20 00:32:07;;;;;;;9.70;2.40;;;;;;;;;;6884692;23;20525;-75
2021/05/20 00:35:28;;;;;;;6.18;2.40;;;;;;;;;;6799372;29;20024;-75
2021/05/20 00:38:48;;;;;;;13.75;2.90;;;;;;;;;;6810098;29;20059;-75
2021/05/20 00:42:09;;;;;;;8.50;2.20;;;;;;;;;;6810752;29;20032;-75
2021/05/20 00:45:30;;;;;;;6.90;2.25;;;;;;;;;;6808976;29;20020;-75
2021/05/20 00:48:50;;;;;;;7.13;2.08;;;;;;;;;;6809238;29;20093;-75
2021/05/20 00:52:11;;;;;;;5.85;2.58;;;;;;;;;;6808891;29;20477;-73
2021/05/20 00:55:34;;;;;;;6.38;1.80;;;;;;;;;;6813680;29;20133;-74
2021/05/20 00:58:55;;;;;;;4.25;1.67;;;;;;;;;;6821183;29;20079;-74
2021/05/20 01:02:16;;;;;;;5.22;2.05;;;;;;;;;;6825044;29;20033;-74
2021/05/20 01:05:36;;;;;;;10.63;2.20;;;;;;;;;;6806261;29;20031;-74
2021/05/20 01:08:57;;;;;;;10.07;1.98;;;;;;;;;;6822293;29;20402;-74
2021/05/20 01:12:18;;;;;;;8.23;2.13;;;;;;;;;;6823011;29;20028;-74
2021/05/20 01:15:38;;;;;;;6.97;1.90;;;;;;;;;;6817496;29;20067;-74
2021/05/20 01:18:58;;;;;;;5.07;1.75;;;;;;;;;;6824736;29;20094;-74
2021/05/20 01:22:19;;;;;;;8.05;1.65;;;;;;;;;;6821474;29;20038;-74
2021/05/20 01:25:41;;;;;;;5.95;2.00;;;;;;;;;;6806572;29;20039;-75
2021/05/20 01:29:03;;;;;;;11.55;1.73;;;;;;;;;;6812858;29;20425;-74
2021/05/20 01:32:24;;;;;;;5.85;1.95;;;;;;;;;;6812045;29;20051;-74
2021/05/20 01:35:46;;;;;;;3.53;1.45;;;;;;;;;;6827297;29;20106;-74
2021/05/20 01:39:07;;;;;;;5.05;1.70;;;;;;;;;;6800307;29;20043;-73
2021/05/20 01:42:27;;;;;;;5.55;1.80;;;;;;;;;;6812370;29;20031;-74
2021/05/20 01:46:00;;;;;;;6.82;1.50;;;;;;;;;;6799413;29;20024;-73
2021/05/20 01:49:20;;;;;;;5.82;1.60;;;;;;;;;;6813695;29;20548;-74
2021/05/20 01:52:41;;;;;;;2.67;1.58;;;;;;;;;;6824539;29;20055;-74
2021/05/20 01:56:02;;;;;;;4.28;1.80;;;;;;;;;;6812091;29;20038;-74
2021/05/20 01:59:23;;;;;;;7.10;2.03;;;;;;;;;;6812287;29;20473;-74
2021/05/20 02:02:43;;;;;;;4.70;1.52;;;;;;;;;;6811945;29;20032;-74
2021/05/20 02:06:05;;;;;;;5.28;2.17;;;;;;;;;;6812126;29;20035;-74
2021/05/20 02:09:25;;;;;;;5.22;1.63;;;;;;;;;;6812232;29;20027;-73
2021/05/20 02:12:45;;;;;;;3.47;1.55;;;;;;;;;;6811839;29;20039;-74
2021/05/20 02:16:07;;;;;;;5.57;1.80;;;;;;;;;;6810299;29;20126;-73
2021/05/20 02:19:27;;;;;;;3.85;1.65;;;;;;;;;;6810549;29;20410;-73
2021/05/20 02:22:49;;;;;;;3.65;1.83;;;;;;;;;;6811526;29;20544;-74
2021/05/20 02:26:09;;;;;;;4.30;1.50;;;;;;;;;;6811510;29;20041;-74
2021/05/20 02:29:30;;;;;;;5.90;1.90;;;;;;;;;;6812252;29;20035;-74
2021/05/20 02:32:50;;;;;;;4.00;1.48;;;;;;;;;;6810470;29;20537;-74
2021/05/20 02:36:10;;;;;;;5.68;1.40;;;;;;;;;;6793551;29;20035;-74
2021/05/20 02:39:31;;;;;;;1.50;1.30;;;;;;;;;;6816622;29;20032;-74
2021/05/20 02:42:51;;;;;;;9.10;1.70;;;;;;;;;;6798243;29;20044;-73
2021/05/20 02:46:12;;;;;;;6.38;1.67;;;;;;;;;;6825832;29;20350;-74
2021/05/20 02:49:32;;;;;;;3.05;1.30;;;;;;;;;;6788470;29;20059;-74
2021/05/20 02:52:53;;;;;;;3.80;1.70;;;;;;;;;;6788523;29;20050;-74
2021/05/20 02:56:13;;;;;;;4.65;1.75;;;;;;;;;;6822324;29;20027;-73
2021/05/20 02:59:35;;;;;;;2.80;1.50;;;;;;;;;;6810372;29;20114;-74
2021/05/20 03:02:57;;;;;;;2.58;1.38;;;;;;;;;;6815803;29;20462;-74
2021/05/20 03:06:18;;;;;;;11.73;1.73;;;;;;;;;;6826825;29;20110;-74
2021/05/20 03:09:39;;;;;;;1.90;1.30;;;;;;;;;;6807457;29;20035;-75
2021/05/20 03:12:59;;;;;;;3.72;1.63;;;;;;;;;;6810319;29;20066;-73
2021/05/20 03:16:20;;;;;;;2.72;1.23;;;;;;;;;;6810560;29;20039;-73
2021/05/20 03:19:42;;;;;;;3.67;1.50;;;;;;;;;;6793231;29;20034;-73
2021/05/20 03:23:02;;;;;;;4.22;1.50;;;;;;;;;;6810241;29;20043;-73
2021/05/20 03:26:22;;;;;;;2.42;1.08;;;;;;;;;;6823297;29;20074;-73
2021/05/20 03:29:43;;;;;;;3.67;1.70;;;;;;;;;;6822604;29;20473;-73
2021/05/20 03:33:03;;;;;;;5.05;1.42;;;;;;;;;;6810977;29;20455;-73
2021/05/20 03:36:24;;;;;;;2.80;1.33;;;;;;;;;;6809439;29;20027;-74
2021/05/20 03:39:44;;;;;;;2.00;1.38;;;;;;;;;;6810469;29;20090;-73
2021/05/20 03:43:05;;;;;;;3.92;1.60;;;;;;;;;;6809906;29;20028;-73
2021/05/20 03:46:25;;;;;;;2.38;1.33;;;;;;;;;;6815308;29;20035;-73
2021/05/20 03:49:45;;;;;;;2.65;1.48;;;;;;;;;;6803998;29;20047;-74
2021/05/20 03:53:06;;;;;;;3.22;1.35;;;;;;;;;;6814902;29;20438;-73
2021/05/20 03:56:26;;;;;;;3.42;1.50;;;;;;;;;;6809466;29;20130;-73
2021/05/20 03:59:47;;;;;;;3.63;1.25;;;;;;;;;;6820864;29;20063;-73
2021/05/20 04:03:07;;;;;;;2.28;1.48;;;;;;;;;;6808825;29;20378;-73
2021/05/20 04:06:27;;;;;;;3.63;1.52;;;;;;;;;;6813779;29;20087;-73
2021/05/20 04:09:48;;;;;;;2.83;1.35;;;;;;;;;;6805236;29;20059;-73
2021/05/20 04:13:08;;;;;;;3.15;1.33;;;;;;;;;;6813534;29;20031;-75
2021/05/20 04:16:29;;;;;;;4.07;1.40;;;;;;;;;;6812890;29;20067;-75
2021/05/20 04:19:49;;;;;;;4.72;1.67;;;;;;;;;;6813161;29;20465;-75
2021/05/20 04:23:09;;;;;;;1.20;1.10;;;;;;;;;;6809232;29;20450;-75
2021/05/20 04:26:30;;;;;;;1.55;1.20;;;;;;;;;;6811662;29;20034;-74
2021/05/20 04:29:50;;;;;;;14.05;1.67;;;;;;;;;;6808769;29;20549;-74
2021/05/20 04:33:11;;;;;;;5.13;1.30;;;;;;;;;;6807139;29;20035;-74
2021/05/20 04:36:32;;;;;;;3.38;1.48;;;;;;;;;;6811194;29;20111;-75
2021/05/20 04:39:52;;;;;;;2.70;1.10;;;;;;;;;;6811353;29;20039;-75
2021/05/20 04:43:12;;;;;;;1.55;1.20;;;;;;;;;;6806093;29;20038;-76
2021/05/20 04:46:33;;;;;;;3.22;1.35;;;;;;;;;;6840286;29;20031;-75
2021/05/20 04:49:53;;;;;;;2.17;1.30;;;;;;;;;;6822796;29;20035;-75
2021/05/20 04:53:14;;;;;;;1.77;1.25;;;;;;;;;;6790565;29;20032;-75
2021/05/20 04:56:35;;;;;;;2.03;1.10;;;;;;;;;;6813355;29;20473;-75
2021/05/20 04:59:55;;;;;;;2.85;1.20;;;;;;;;;;6813981;29;20031;-75
2021/05/20 05:03:16;;;;;;;1.48;1.08;;;;;;;;;;6827208;29;20079;-75
2021/05/20 05:06:36;;;;;;;1.27;1.00;;;;;;;;;;6826811;29;20035;-75
2021/05/20 05:09:57;;;;;;;1.58;1.17;;;;;;;;;;6814224;29;20106;-75
2021/05/20 05:13:18;;;;;;;1.35;1.25;;;;;;;;;;6813796;29;20115;-74
2021/05/20 05:16:39;;;;;;;1.70;1.40;;;;;;;;;;6826581;29;20091;-74
2021/05/20 05:19:59;;;;;;;1.60;1.25;;;;;;;;;;6827134;29;20028;-74
2021/05/20 05:23:20;;;;;;;1.33;1.17;;;;;;;;;;6813726;29;20024;-75
2021/05/20 05:26:40;;;;;;;1.50;1.13;;;;;;;;;;6813988;29;20115;-75
2021/05/20 05:30:01;;;;;;;2.05;1.27;;;;;;;;;;6827230;29;20055;-75
2021/05/20 05:33:22;;;;;;;4.82;1.30;;;;;;;;;;6826180;29;20027;-75
2021/05/20 05:36:43;;;;;;;2.67;2.40;;;;;;;;;;6806240;29;20028;-75
2021/05/20 05:40:05;;;;;;;3.67;2.40;;;;;;;;;;6807893;29;20042;-76
2021/05/20 05:43:25;;;;;;;2.88;2.67;;;;;;;;;;6805963;29;20063;-76
2021/05/20 05:46:46;;;;;;;7.22;6.68;;;;;;;;;;6799464;29;20119;-76
2021/05/20 05:50:10;;;;;;;6.90;6.50;;;;;;;;;;6807997;29;20433;-76
2021/05/20 05:53:30;;;;;;;5.78;5.38;;;;;;;;;;6812235;29;20382;-73
2021/05/20 05:56:51;;;;;;;2.35;1.50;;;;;;;;;;6812341;29;20512;-77
2021/05/20 06:00:12;;;;;;;2.10;1.60;;;;;;;;;;6825728;29;20103;-77
2021/05/20 06:03:33;;;;;;;5.20;1.33;;;;;;;;;;6810433;29;20036;-74
2021/05/20 06:06:54;;;;;;;1.85;1.52;;;;;;;;;;6800153;29;20036;-77
2021/05/20 06:10:14;;;;;;;2.78;1.70;;;;;;;;;;6831030;29;20370;-76
2021/05/20 06:13:34;;;;;;;3.17;1.45;;;;;;;;;;6812580;29;20038;-74
2021/05/20 06:16:55;;;;;;;1.98;1.45;;;;;;;;;;6812154;29;20027;-75
2021/05/20 06:20:16;;;;;;;1.40;1.30;;;;;;;;;;6812452;29;20052;-76
2021/05/20 06:23:37;;;;;;;1.98;1.48;;;;;;;;;;6812327;29;20023;-75
2021/05/20 06:26:57;;;;;;;1.33;1.20;;;;;;;;;;6822333;29;20083;-76
2021/05/20 06:30:18;;;;;;;2.40;1.30;;;;;;;;;;6803352;29;20051;-75
2021/05/20 06:33:38;;;;;;;1.50;1.30;;;;;;;;;;6808632;29;20545;-75
2021/05/20 06:37:02;;;;;;;2.38;1.73;;;;;;;;;;6812108;29;20122;-76
2021/05/20 06:40:22;;;;;;;1.85;1.50;;;;;;;;;;6820367;29;20059;-75
2021/05/20 06:43:43;;;;;;;1.70;1.30;;;;;;;;;;6815139;29;20040;-76
2021/05/20 06:47:04;;;;;;;1.80;1.50;;;;;;;;;;6811966;29;20508;-75
2021/05/20 06:50:24;;;;;;;6.28;1.60;;;;;;;;;;6813616;29;20040;-75
2021/05/20 06:53:47;;;;;;;1.50;1.40;;;;;;;;;;6791167;29;20458;-75
2021/05/20 06:57:21;;;;;;;2.17;1.60;;;;;;;;;;6787310;29;20036;-75
2021/05/20 07:00:41;;;;;;;2.72;1.35;;;;;;;;;;6790547;29;20088;-75
2021/05/20 07:04:02;;;;;;;5.32;1.50;;;;;;;;;;6785854;29;20052;-75
2021/05/20 07:07:24;;;;;;;1.50;1.40;;;;;;;;;;6797988;29;20042;-75
2021/05/20 07:10:46;;;;;;;2.08;1.63;;;;;;;;;;6809970;29;20474;-76
2021/05/20 07:14:07;;;;;;;2.20;2.00;;;;;;;;;;6809563;29;20024;-76
2021/05/20 07:17:28;;;;;;;4.38;1.98;;;;;;;;;;6809251;29;20896;-75
2021/05/20 07:20:48;;;;;;;2.90;2.10;;;;;;;;;;6813216;29;20039;-74
2021/05/20 07:24:09;;;;;;;2.38;1.95;;;;;;;;;;6804085;29;20059;-73
2021/05/20 07:27:33;;;;;;;7.78;1.20;;;;;;;;;;6808768;29;20492;-73
2021/05/20 07:30:53;;;;;;;3.67;2.33;;;;;;;;;;6792566;29;20123;-72
2021/05/20 07:34:14;;;;;;;5.93;2.13;;;;;;;;;;6802042;29;20046;-73
2021/05/20 07:37:36;;;;;;;7.70;2.70;;;;;;;;;;6801535;29;20478;-73
2021/05/20 07:40:56;;;;;;;8.80;2.75;;;;;;;;;;6802628;29;20039;-73
2021/05/20 07:44:17;;;;;;;5.90;2.50;;;;;;;;;;6805227;29;20118;-72
2021/05/20 07:47:38;;;;;;;9.90;2.85;;;;;;;;;;6801525;29;20154;-73
2021/05/20 07:51:00;;;;;;;8.90;2.45;;;;;;;;;;6815788;29;20031;-73
2021/05/20 07:54:20;;;;;;;9.93;2.47;;;;;;;;;;6821325;29;20098;-73
2021/05/20 07:57:41;;;;;;;8.85;2.53;;;;;;;;;;6806745;29;20032;-74
2021/05/20 08:01:03;;;;;;;4.88;1.73;;;;;;;;;;6808174;29;20036;-73
2021/05/20 08:04:26;;;;;;;10.02;2.30;;;;;;;;;;6805911;29;20046;-73
2021/05/20 08:11:07;;;;;;;4.88;1.80;;;;;;;;;;6811088;29;20036;-73
2021/05/20 08:14:28;;;;;;;4.85;2.00;;;;;;;;;;6813088;28;20039;-74
2021/05/20 08:17:48;;;;;;;11.20;1.90;;;;;;;;;;6800082;29;20432;-74
2021/05/20 08:21:10;;;;;;;4.60;1.63;;;;;;;;;;6787871;29;20118;-74
2021/05/20 08:24:30;;;;;;;4.50;1.45;;;;;;;;;;6797403;29;20059;-73
2021/05/20 08:27:51;;;;;;;2.42;1.48;;;;;;;;;;6812077;29;20114;-74
2021/05/20 08:31:12;;;;;;;3.75;1.48;;;;;;;;;;6780419;29;20478;-74
2021/05/20 08:34:32;;;;;;;7.15;1.55;;;;;;;;;;6782860;29;20385;-74
2021/05/20 08:37:53;;;;;;;4.82;1.63;;;;;;;;;;6797761;29;20035;-74
2021/05/20 08:41:17;;;;;;;4.25;1.15;;;;;;;;;;6802422;29;20059;-75
2021/05/20 08:44:37;;;;;;;5.00;1.33;;;;;;;;;;6806717;29;20046;-75
2021/05/20 08:47:58;;;;;;;9.07;1.63;;;;;;;;;;6801934;29;20048;-76
2021/05/20 08:51:19;;;;;;;4.40;1.65;;;;;;;;;;6819475;29;20031;-76
2021/05/20 08:54:40;;;;;;;4.53;1.88;;;;;;;;;;6822058;29;20083;-75
2021/05/20 08:58:03;;;;;;;5.68;1.92;;;;;;;;;;6781902;29;20119;-75
2021/05/20 09:01:36;;;;;;;4.03;1.60;;;;;;;;;;6795092;29;20039;-74
2021/05/20 09:05:00;;;;;;;4.53;1.48;;;;;;;;;;6807608;29;20042;-75
2021/05/20 09:08:28;;;;;;;3.78;1.60;;;;;;;;;;6794989;29;20031;-75
2021/05/20 09:11:54;;;;;;;8.30;1.73;;;;;;;;;;6807756;29;20058;-75
2021/05/20 09:15:26;;;;;;;5.03;1.73;;;;;;;;;;6797991;29;20410;-75
2021/05/20 09:18:46;;;;;;;4.97;1.92;;;;;;;;;;6803892;29;20095;-75
2021/05/20 09:22:09;;;;;;;8.38;1.63;;;;;;;;;;6804388;29;20410;-75
2021/05/20 09:25:32;;;;;;;4.50;1.40;;;;;;;;;;6805897;29;20097;-75
2021/05/20 09:28:52;;;;;;;3.95;1.73;;;;;;;;;;6820607;29;20043;-75
2021/05/20 09:32:13;;;;;;;5.03;1.80;;;;;;;;;;6818829;29;20130;-75
2021/05/20 09:35:36;;;;;;;3.10;1.80;;;;;;;;;;6795314;29;20071;-75
2021/05/20 09:39:10;;;;;;;5.00;1.90;;;;;;;;;;6816999;29;20123;-75
2021/05/20 09:42:31;;;;;;;2.63;1.30;;;;;;;;;;6797792;29;20464;-75
2021/05/20 09:45:54;;;;;;;9.00;1.73;;;;;;;;;;6790160;29;20401;-75
2021/05/20 09:49:14;;;;;;;4.35;1.70;;;;;;;;;;6788665;29;20035;-75
2021/05/20 09:52:35;;;;;;;2.75;1.38;;;;;;;;;;6809897;29;20481;-75
2021/05/20 09:56:00;;;;;;;5.15;1.20;;;;;;;;;;6805260;29;20042;-75
2021/05/20 09:59:30;;;;;;;4.10;1.35;;;;;;;;;;6808992;29;20059;-76
2021/05/20 10:03:20;;;;;;;2.80;1.38;;;;;;;;;;6802424;29;20027;-75
2021/05/20 10:06:42;;;;;;;3.42;1.42;;;;;;;;;;6779439;29;20433;-75
2021/05/20 10:10:03;;;;;;;2.60;1.23;;;;;;;;;;6810083;29;20043;-75
2021/05/20 10:13:25;;;;;;;2.15;1.35;;;;;;;;;;6797162;29;20083;-75
2021/05/20 10:16:49;;;;;;;3.78;1.30;;;;;;;;;;6814930;29;20458;-75
2021/05/20 10:20:12;;;;;;;1.95;1.00;;;;;;;;;;6824398;29;20043;-76
2021/05/20 10:23:33;;;;;;;1.25;0.98;;;;;;;;;;6813100;29;20031;-77
2021/05/20 10:26:53;;;;;;;1.35;1.00;;;;;;;;;;6811684;29;20030;-76
2021/05/20 10:30:16;;;;;;;1.90;0.90;;;;;;;;;;6810482;29;20040;-75
2021/05/20 10:33:36;;;;;;;1.25;0.88;;;;;;;;;;6810014;29;20112;-76
2021/05/20 10:37:03;;;;;;;3.55;0.95;;;;;;;;;;6809632;29;20035;-76
2021/05/20 10:40:23;;;;;;;1.73;0.95;;;;;;;;;;6812521;29;20164;-76
2021/05/20 10:44:08;;;;;;;1.23;0.80;;;;;;;;;;6811941;29;20047;-76
2021/05/20 10:47:29;;;;;;;1.48;0.82;;;;;;;;;;6812868;29;20126;-76
2021/05/20 10:50:52;;;;;;;2.40;0.98;;;;;;;;;;6810777;29;20358;-75
2021/05/20 10:54:15;;;;;;;1.00;0.90;;;;;;;;;;6810120;29;20065;-75
2021/05/20 10:57:48;;;;;;;4.90;0.80;;;;;;;;;;6794019;29;20067;-75
2021/05/20 11:01:31;;;;;;;1.38;0.80;;;;;;;;;;6810512;29;20088;-74
2021/05/20 11:04:51;;;;;;;1.50;1.10;;;;;;;;;;6802855;29;20043;-74
2021/05/20 11:08:38;;;;;;;2.30;1.23;;;;;;;;;;6810148;29;20047;-74
2021/05/20 11:11:59;;;;;;;2.25;1.08;;;;;;;;;;6772737;29;20118;-73
2021/05/20 11:15:20;;;;;;;0.82;0.75;;;;;;;;;;6810093;29;20367;-75
2021/05/20 11:18:42;;;;;;;0.85;0.80;;;;;;;;;;6809071;29;20465;-75
2021/05/20 11:22:03;;;;;;;1.08;0.90;;;;;;;;;;6808099;29;20122;-75
2021/05/20 11:25:23;;;;;;;0.82;0.80;;;;;;;;;;6810372;29;20144;-75
2021/05/20 11:28:54;;;;;;;2.80;0.80;;;;;;;;;;6811651;29;20394;-75
2021/05/20 11:32:33;;;;;;;0.73;0.70;;;;;;;;;;6805225;29;20070;-75
2021/05/20 11:36:11;;;;;;;2.93;0.80;;;;;;;;;;6805358;29;20043;-75
2021/05/20 11:39:32;;;;;;;1.95;0.80;;;;;;;;;;6807803;29;20969;-75
2021/05/20 11:42:52;;;;;;;0.70;0.63;;;;;;;;;;6808741;29;20036;-75
2021/05/20 11:46:21;;;;;;;0.90;0.75;;;;;;;;;;6792236;29;20030;-75
2021/05/20 11:49:42;;;;;;;1.77;0.73;;;;;;;;;;6818599;28;20047;-75
2021/05/20 11:53:12;;;;;;;6.10;0.80;;;;;;;;;;6803382;29;20043;-75
2021/05/20 11:56:37;;;;;;;4.25;1.15;;;;;;;;;;6809075;29;20118;-75
2021/05/20 11:59:58;;;;;;;0.80;0.80;;;;;;;;;;6809229;29;20044;-74
2021/05/20 12:03:27;;;;;;;1.08;0.80;;;;;;;;;;6808692;29;20122;-74
2021/05/20 12:06:50;;;;;;;0.82;0.82;;;;;;;;;;6826932;29;20070;-74
2021/05/20 12:10:13;;;;;;;0.68;0.68;;;;;;;;;;6823392;28;20041;-75
2021/05/20 12:13:37;;;;;;;1.38;0.73;;;;;;;;;;6807603;29;20032;-75
2021/05/20 12:17:16;;;;;;;0.82;0.73;;;;;;;;;;6816844;29;20036;-75
2021/05/20 12:20:43;;;;;;;1.93;0.70;;;;;;;;;;6808063;29;20035;-74
2021/05/20 12:24:04;;;;;;;2.08;0.80;;;;;;;;;;6801413;29;20428;-75
2021/05/20 12:27:27;;;;;;;0.80;0.70;;;;;;;;;;6799562;29;20024;-75
2021/05/20 12:30:47;;;;;;;1.13;0.80;;;;;;;;;;6850235;23;20115;-75
2021/05/20 12:34:18;;;;;;;2.15;1.02;;;;;;;;;;6808543;29;20055;-75
2021/05/20 12:37:53;;;;;;;1.92;0.80;;;;;;;;;;6809263;29;20058;-75
2021/05/20 12:41:13;;;;;;;2.28;0.90;;;;;;;;;;6808851;29;20382;-75
2021/05/20 12:44:33;;;;;;;2.42;0.80;;;;;;;;;;6809199;29;20509;-75
2021/05/20 12:47:54;;;;;;;4.78;0.95;;;;;;;;;;6806936;29;20123;-75
2021/05/20 12:51:14;;;;;;;1.33;0.73;;;;;;;;;;6808218;29;20062;-76
2021/05/20 12:54:35;;;;;;;3.00;0.80;;;;;;;;;;6808496;29;20091;-75
2021/05/20 12:57:58;;;;;;;0.70;0.70;;;;;;;;;;6806833;29;20059;-75
2021/05/20 13:01:20;;;;;;;0.70;0.60;;;;;;;;;;6812189;29;20414;-74
2021/05/20 13:04:41;;;;;;;3.40;0.98;;;;;;;;;;6814169;29;20085;-75
2021/05/20 13:08:21;;;;;;;8.45;1.05;;;;;;;;;;6814156;29;20043;-73
2021/05/20 13:11:49;;;;;;;7.43;1.00;;;;;;;;;;6805111;29;20038;-73
2021/05/20 13:15:16;;;;;;;9.30;1.15;;;;;;;;;;6781502;29;20042;-73
2021/05/20 13:19:14;;;;;;;4.28;0.90;;;;;;;;;;6807533;29;20055;-73
2021/05/20 13:22:31;;;;;;;1.75;0.85;;;;;;;;;;6811556;29;20032;-73
2021/05/20 13:25:52;;;;;;;2.42;0.80;;;;;;;;;;6811070;29;20067;-72
2021/05/20 13:29:12;;;;;;;2.47;0.82;;;;;;;;;;6812834;29;20091;-73
2021/05/20 13:32:40;;;;;;;2.13;0.90;;;;;;;;;;6813403;29;20039;-73
2021/05/20 13:36:04;;;;;;;0.90;0.70;;;;;;;;;;6791483;29;20028;-73
2021/05/20 13:39:24;;;;;;;2.88;1.25;;;;;;;;;;6812219;29;20039;-73
2021/05/20 13:42:45;;;;;;;1.27;0.65;;;;;;;;;;6813086;29;20070;-73
2021/05/20 13:46:05;;;;;;;2.83;1.00;;;;;;;;;;6812901;29;20433;-73
2021/05/20 13:49:25;;;;;;;3.38;0.57;;;;;;;;;;6812069;29;20454;-73
2021/05/20 13:52:46;;;;;;;2.85;1.05;;;;;;;;;;6812012;29;20039;-73
2021/05/20 13:56:06;;;;;;;1.13;0.70;;;;;;;;;;6812853;29;20082;-74
2021/05/20 13:59:28;;;;;;;2.33;0.90;;;;;;;;;;6812995;29;20513;-74
2021/05/20 14:02:49;;;;;;;3.28;0.70;;;;;;;;;;6812797;29;20134;-72
2021/05/20 14:06:10;;;;;;;1.35;0.73;;;;;;;;;;6810420;29;20051;-73
2021/05/20 14:09:30;;;;;;;1.55;0.80;;;;;;;;;;6811263;29;20032;-73
2021/05/20 14:12:51;;;;;;;6.70;0.85;;;;;;;;;;6810187;29;20363;-73
2021/05/20 14:16:12;;;;;;;3.13;0.90;;;;;;;;;;6810568;29;20031;-74
2021/05/20 14:19:33;;;;;;;0.90;0.60;;;;;;;;;;6809805;29;20032;-74
2021/05/20 14:22:54;;;;;;;0.75;0.70;;;;;;;;;;6809799;29;20461;-75
2021/05/20 14:26:14;;;;;;;0.60;0.60;;;;;;;;;;6811485;29;20409;-74
2021/05/20 14:29:35;;;;;;;1.65;0.70;;;;;;;;;;6810067;29;20063;-73
2021/05/20 14:32:56;;;;;;;3.38;0.77;;;;;;;;;;6810010;29;20119;-75
2021/05/20 14:36:16;;;;;;;3.00;0.75;;;;;;;;;;6810691;29;20032;-73
2021/05/20 14:39:36;;;;;;;4.80;0.98;;;;;;;;;;6810190;29;20040;-74
2021/05/20 14:42:57;;;;;;;2.17;0.90;;;;;;;;;;6812453;29;20063;-73
2021/05/20 14:46:17;;;;;;;1.63;0.68;;;;;;;;;;6810647;29;20087;-73
2021/05/20 14:53:07;;;;;;;1.55;0.75;;;;;;;;;;6812469;29;20102;-73
2021/05/20 14:57:18;;;;;;;1.80;0.60;;;;;;;;;;6810534;29;20052;-74
2021/05/20 15:07:30;;;;;;;0.70;0.70;;;;;;;;;;6810638;29;20031;-74
2021/05/20 15:14:38;;;;;;;0.90;0.80;;;;;;;;;;6811721;29;20047;-74
2021/05/20 15:18:03;;;;;;;2.25;1.00;;;;;;;;;;6812309;29;20032;-74
2021/05/20 15:21:23;;;;;;;1.88;0.73;;;;;;;;;;6811795;29;20537;-73
2021/05/20 15:24:44;;;;;;;1.05;0.60;;;;;;;;;;6811991;29;20044;-74
2021/05/20 15:28:05;;;;;;;0.70;0.70;;;;;;;;;;6811769;29;20080;-73
2021/05/20 15:31:25;;;;;;;1.42;0.85;;;;;;;;;;6810534;29;20051;-74
2021/05/20 15:34:47;;;;;;;1.92;0.75;;;;;;;;;;6810162;29;20458;-74
2021/05/20 15:38:07;;;;;;;1.58;0.85;;;;;;;;;;6810482;29;20058;-74
2021/05/20 15:41:28;;;;;;;3.33;0.80;;;;;;;;;;6812235;29;20055;-73
2021/05/20 15:44:48;;;;;;;1.38;0.75;;;;;;;;;;6811410;29;20091;-73
2021/05/20 15:48:32;;;;;;;1.83;0.70;;;;;;;;;;6810817;29;20020;-73
2021/05/20 15:51:53;;;;;;;1.58;0.80;;;;;;;;;;6808463;29;20090;-74
2021/05/20 15:55:16;;;;;;;3.63;0.90;;;;;;;;;;6810487;29;20407;-74
2021/05/20 15:58:36;;;;;;;0.80;0.63;;;;;;;;;;6793727;29;20059;-73
2021/05/20 16:01:57;;;;;;;2.95;0.80;;;;;;;;;;6811242;29;20028;-73
2021/05/20 16:05:19;;;;;;;3.83;0.85;;;;;;;;;;6809540;29;20464;-74
2021/05/20 16:08:53;;;;;;;2.25;0.80;;;;;;;;;;6806670;29;20036;-73
2021/05/20 16:12:43;;;;;;;1.55;0.50;;;;;;;;;;6804256;29;20034;-73
2021/05/20 16:15:55;;;;;;;1.17;0.60;;;;;;;;;;6811044;29;20059;-72
2021/05/20 16:19:16;;;;;;;1.10;0.65;;;;;;;;;;6809996;29;20534;-74
2021/05/20 16:40:11;;;;;;;0.93;0.70;;;;;;;;;;6814703;29;20043;-74
2021/05/20 16:43:31;;;;;;;1.95;0.60;;;;;;;;;;6815549;29;20035;-74
2021/05/20 16:46:51;;;;;;;0.70;0.70;;;;;;;;;;6813953;29;20114;-73
2021/05/20 16:50:12;;;;;;;1.67;0.60;;;;;;;;;;6814830;29;20063;-74
2021/05/20 16:53:33;;;;;;;3.80;1.05;;;;;;;;;;6814536;29;20027;-74
2021/05/20 16:57:06;;;;;;;2.53;0.80;;;;;;;;;;6814823;29;20110;-74
2021/05/20 17:00:26;;;;;;;4.75;0.93;;;;;;;;;;6814013;29;20031;-74
2021/05/20 17:03:47;;;;;;;1.00;0.70;;;;;;;;;;6813659;29;20091;-74
2021/05/20 17:07:07;;;;;;;3.08;0.93;;;;;;;;;;6818788;29;20466;-74
2021/05/20 17:10:27;;;;;;;9.07;0.95;;;;;;;;;;6813766;29;20042;-74
2021/05/20 17:13:50;;;;;;;4.70;0.95;;;;;;;;;;6813309;29;20394;-74
2021/05/20 17:17:10;;;;;;;2.03;0.77;;;;;;;;;;6813277;29;20039;-73
2021/05/20 17:20:30;;;;;;;2.75;0.80;;;;;;;;;;6813388;29;20063;-74
2021/05/20 17:23:51;;;;;;;1.38;0.80;;;;;;;;;;6813075;29;20462;-74
2021/05/20 17:27:12;;;;;;;4.57;0.95;;;;;;;;;;6811896;29;20038;-73
2021/05/20 17:30:33;;;;;;;3.95;1.13;;;;;;;;;;6812445;29;20048;-73
2021/05/20 17:33:53;;;;;;;2.85;0.82;;;;;;;;;;6814492;29;20066;-72
2021/05/20 17:37:14;;;;;;;2.65;0.90;;;;;;;;;;6813175;29;20032;-73
2021/05/20 17:40:34;;;;;;;1.73;0.90;;;;;;;;;;6813522;29;20036;-74
2021/05/20 17:43:55;;;;;;;4.13;1.00;;;;;;;;;;6812802;29;20043;-73
2021/05/20 17:47:15;;;;;;;1.02;0.93;;;;;;;;;;6811846;29;20118;-73
2021/05/20 17:50:35;;;;;;;2.47;0.82;;;;;;;;;;6809957;29;20052;-73
2021/05/20 17:53:56;;;;;;;2.40;0.90;;;;;;;;;;6812272;29;20415;-74
2021/05/20 17:57:16;;;;;;;5.55;0.93;;;;;;;;;;6812664;29;20380;-73
2021/05/20 18:00:37;;;;;;;1.75;0.80;;;;;;;;;;6811869;29;20035;-74
2021/05/20 18:03:57;;;;;;;3.03;0.85;;;;;;;;;;6812618;29;20075;-74
2021/05/20 18:07:18;;;;;;;1.65;0.77;;;;;;;;;;6812501;29;20453;-73
2021/05/20 18:10:46;;;;;;;2.90;0.93;;;;;;;;;;6812133;29;20165;-74
2021/05/20 18:14:16;;;;;;;1.13;0.75;;;;;;;;;;6812130;29;20520;-74
2021/05/20 18:24:36;;;;;;;2.75;1.05;;;;;;;;;;6807990;29;20051;-74
2021/05/20 18:27:57;;;;;;;7.32;1.33;;;;;;;;;;6811675;29;20038;-74
2021/05/20 18:31:17;;;;;;;4.32;1.05;;;;;;;;;;6810881;29;20047;-74
2021/05/20 18:34:41;;;;;;;4.18;1.25;;;;;;;;;;6810638;29;20042;-74
2021/05/20 18:38:01;;;;;;;4.10;1.10;;;;;;;;;;6809403;29;20367;-74
2021/05/20 18:41:23;;;;;;;4.13;1.30;;;;;;;;;;6811034;29;20475;-74
2021/05/20 18:44:47;;;;;;;12.63;1.75;;;;;;;;;;6795389;29;20040;-74
2021/05/20 18:48:07;;;;;;;5.70;1.10;;;;;;;;;;6804629;29;20028;-73
2021/05/20 18:51:28;;;;;;;4.50;1.20;;;;;;;;;;6814698;29;20043;-73
2021/05/20 18:54:54;;;;;;;14.82;1.73;;;;;;;;;;6786859;29;20035;-74
2021/05/20 18:58:15;;;;;;;5.70;1.58;;;;;;;;;;6811297;29;20124;-74
2021/05/20 19:01:35;;;;;;;8.60;1.38;;;;;;;;;;6811395;29;20036;-74
2021/05/20 19:04:56;;;;;;;5.85;1.40;;;;;;;;;;6811629;29;20023;-74
2021/05/20 19:08:16;;;;;;;10.70;1.75;;;;;;;;;;6811170;29;20122;-74
2021/05/20 19:11:41;;;;;;;3.85;1.02;;;;;;;;;;6811917;29;20058;-74
2021/05/20 19:15:02;;;;;;;4.40;1.20;;;;;;;;;;6811001;29;20032;-74
2021/05/20 19:18:44;;;;;;;7.20;1.70;;;;;;;;;;6811286;29;20055;-74
2021/05/20 19:22:10;;;;;;;5.20;1.33;;;;;;;;;;6811300;29;20044;-74
2021/05/20 19:25:31;;;;;;;6.82;1.20;;;;;;;;;;6787343;29;20027;-74
2021/05/20 19:28:56;;;;;;;3.03;1.20;;;;;;;;;;6810298;29;20036;-74
2021/05/20 19:32:20;;;;;;;8.13;1.65;;;;;;;;;;6811650;29;20526;-74
2021/05/20 19:35:40;;;;;;;5.82;1.45;;;;;;;;;;6810656;29;20378;-74
2021/05/20 19:39:01;;;;;;;5.47;1.50;;;;;;;;;;6793893;29;20464;-74
2021/05/20 19:42:21;;;;;;;3.72;1.13;;;;;;;;;;6799583;29;20028;-74
2021/05/20 19:45:44;;;;;;;4.20;1.13;;;;;;;;;;6809129;29;20119;-74
2021/05/20 19:49:05;;;;;;;3.17;1.00;;;;;;;;;;6810099;29;20035;-74
2021/05/20 19:52:28;;;;;;;2.88;1.13;;;;;;;;;;6811218;29;20035;-74
2021/05/20 19:59:32;;;;;;;4.78;1.20;;;;;;;;;;6809678;29;20479;-74
2021/05/20 20:03:01;;;;;;;2.75;1.58;;;;;;;;;;6808524;29;20044;-74
2021/05/20 20:09:42;;;;;;;3.00;1.10;;;;;;;;;;6809287;29;20039;-74
2021/05/20 20:13:03;;;;;;;4.22;1.33;;;;;;;;;;6793625;29;20036;-74
2021/05/20 20:16:24;;;;;;;5.60;1.33;;;;;;;;;;6810233;29;20032;-74
2021/05/20 20:19:45;;;;;;;5.43;1.50;;;;;;;;;;6809281;29;20063;-74
2021/05/20 20:23:07;;;;;;;3.53;1.35;;;;;;;;;;6810423;29;20079;-74
2021/05/20 20:30:07;;;;;;;4.28;1.48;;;;;;;;;;6809425;29;20059;-74
2021/05/20 20:37:04;;;;;;;3.50;1.13;;;;;;;;;;6809770;29;20131;-74
2021/05/20 20:44:04;;;;;;;3.67;1.23;;;;;;;;;;6798358;29;20040;-74
2021/05/20 20:47:25;;;;;;;1.83;1.13;;;;;;;;;;6796992;29;20546;-74
2021/05/20 20:50:55;;;;;;;3.72;1.17;;;;;;;;;;6806687;29;20036;-74
2021/05/20 20:54:16;;;;;;;3.95;0.90;;;;;;;;;;6809282;29;20035;-74
2021/05/20 20:57:36;;;;;;;3.47;1.27;;;;;;;;;;6792720;29;20433;-74
2021/05/20 21:00:56;;;;;;;1.58;0.80;;;;;;;;;;6808878;29;20027;-74
2021/05/20 21:04:17;;;;;;;4.22;1.20;;;;;;;;;;6810086;29;20064;-74
2021/05/20 21:07:38;;;;;;;6.40;1.13;;;;;;;;;;6809475;29;20118;-74
2021/05/20 21:10:59;;;;;;;2.58;1.02;;;;;;;;;;6809079;29;20111;-74
2021/05/20 21:14:19;;;;;;;6.18;1.50;;;;;;;;;;6805872;29;20115;-74